Time;durP1;ratioP1;P1;durP2;ratioP2;P2;SDS_P1;SDS_P2;PMS_P1;PMS_P2;Temp;Humidity;BMP_temperature;BMP_pressure;BME280_temperature;BME280_humidity;BME280_pressure;Samples;Min_cycle;Max_cycle;Signal;HPM_P1;HPM_P2
2024/04/14 00:01:40;;;;;;;12.40;4.47;;;;;;;;;;5372883;26;20078;-65
2024/04/14 00:04:08;;;;;;;12.90;5.00;;;;;;;;;;5365729;26;19999;-65
2024/04/14 00:06:35;;;;;;;12.15;4.72;;;;;;;;;;5363182;26;20011;-65
2024/04/14 00:09:03;;;;;;;12.63;4.75;;;;;;;;;;5368956;26;19999;-65
2024/04/14 00:11:31;;;;;;;14.68;4.50;;;;;;;;;;5376465;26;20079;-66
2024/04/14 00:13:58;;;;;;;11.35;3.95;;;;;;;;;;5367136;26;20010;-66
2024/04/14 00:16:25;;;;;;;12.98;3.78;;;;;;;;;;5370674;26;19998;-65
2024/04/14 00:18:53;;;;;;;11.98;3.85;;;;;;;;;;5355821;26;20018;-65
2024/04/14 00:21:22;;;;;;;12.23;3.60;;;;;;;;;;5363105;26;20637;-65
2024/04/14 00:23:51;;;;;;;10.20;3.70;;;;;;;;;;5368409;26;20011;-64
2024/04/14 00:26:18;;;;;;;11.88;3.85;;;;;;;;;;5357477;26;21075;-64
2024/04/14 00:28:45;;;;;;;13.43;3.90;;;;;;;;;;5370885;26;20022;-65
2024/04/14 00:31:13;;;;;;;10.20;3.35;;;;;;;;;;5374306;26;20016;-65
2024/04/14 00:33:40;;;;;;;9.55;3.60;;;;;;;;;;5378312;26;20015;-65
2024/04/14 00:36:12;;;;;;;9.75;4.00;;;;;;;;;;5370594;26;20004;-65
2024/04/14 00:38:41;;;;;;;9.18;3.50;;;;;;;;;;5375109;26;20052;-65
2024/04/14 00:41:08;;;;;;;11.68;3.38;;;;;;;;;;5366823;26;20574;-65
2024/04/14 00:43:37;;;;;;;12.95;3.67;;;;;;;;;;5375191;26;20003;-65
2024/04/14 00:46:03;;;;;;;8.77;3.47;;;;;;;;;;5357928;26;20019;-65
2024/04/14 00:48:31;;;;;;;11.75;3.10;;;;;;;;;;5379555;26;20024;-64
2024/04/14 00:50:58;;;;;;;11.35;2.95;;;;;;;;;;5360248;26;20456;-64
2024/04/14 00:53:26;;;;;;;11.45;3.63;;;;;;;;;;5367431;26;20029;-64
2024/04/14 00:55:54;;;;;;;13.27;5.97;;;;;;;;;;5364139;26;20010;-65
2024/04/14 00:58:21;;;;;;;15.55;7.93;;;;;;;;;;5374833;26;20034;-64
2024/04/14 01:00:49;;;;;;;13.45;6.90;;;;;;;;;;5359180;26;20604;-64
2024/04/14 01:03:16;;;;;;;16.30;7.43;;;;;;;;;;5371680;26;20022;-65
2024/04/14 01:05:44;;;;;;;17.85;9.38;;;;;;;;;;5384803;26;20056;-65
2024/04/14 01:08:13;;;;;;;19.08;9.20;;;;;;;;;;5397697;26;19994;-64
2024/04/14 01:10:41;;;;;;;20.23;9.15;;;;;;;;;;5360152;26;20095;-64
2024/04/14 01:13:10;;;;;;;18.20;9.05;;;;;;;;;;5342862;26;20000;-65
2024/04/14 01:15:37;;;;;;;17.10;7.95;;;;;;;;;;5376300;26;20007;-65
2024/04/14 01:18:08;;;;;;;17.63;8.10;;;;;;;;;;5352622;26;20023;-65
2024/04/14 01:20:37;;;;;;;16.23;7.40;;;;;;;;;;5371596;26;20011;-65
2024/04/14 01:23:04;;;;;;;17.15;6.93;;;;;;;;;;5357893;26;21484;-65
2024/04/14 01:25:32;;;;;;;13.73;6.57;;;;;;;;;;5377417;26;20023;-65
2024/04/14 01:27:59;;;;;;;14.45;6.68;;;;;;;;;;5374406;26;20967;-66
2024/04/14 01:30:27;;;;;;;18.33;6.53;;;;;;;;;;5376416;26;20007;-65
2024/04/14 01:32:57;;;;;;;20.10;6.80;;;;;;;;;;5378665;26;20045;-65
2024/04/14 01:35:25;;;;;;;18.42;6.97;;;;;;;;;;5374965;26;20007;-65
2024/04/14 01:37:52;;;;;;;17.77;6.78;;;;;;;;;;5371449;26;20000;-65
2024/04/14 01:40:19;;;;;;;14.43;6.05;;;;;;;;;;5371164;26;20051;-65
2024/04/14 01:42:47;;;;;;;14.73;5.82;;;;;;;;;;5379508;26;20084;-65
2024/04/14 01:45:16;;;;;;;15.18;5.40;;;;;;;;;;5374316;26;20974;-65
2024/04/14 01:47:43;;;;;;;13.55;5.05;;;;;;;;;;5377260;26;20002;-65
2024/04/14 01:50:10;;;;;;;14.13;4.90;;;;;;;;;;5376826;26;20029;-65
2024/04/14 01:52:38;;;;;;;15.65;5.25;;;;;;;;;;5381805;26;20481;-65
2024/04/14 01:55:07;;;;;;;12.85;4.50;;;;;;;;;;5369697;26;20048;-65
2024/04/14 01:57:36;;;;;;;11.43;4.40;;;;;;;;;;5373388;26;20011;-65
2024/04/14 02:00:03;;;;;;;10.27;3.90;;;;;;;;;;5369864;26;20007;-65
2024/04/14 02:02:33;;;;;;;12.18;3.65;;;;;;;;;;5374959;26;20780;-65
2024/04/14 02:05:00;;;;;;;11.77;4.05;;;;;;;;;;5366161;26;20014;-65
2024/04/14 02:07:28;;;;;;;10.55;3.70;;;;;;;;;;5372536;26;20018;-65
2024/04/14 02:09:56;;;;;;;12.18;3.42;;;;;;;;;;5371755;26;20055;-65
2024/04/14 02:12:23;;;;;;;10.65;3.42;;;;;;;;;;5364288;26;20916;-65
2024/04/14 02:14:50;;;;;;;8.10;3.20;;;;;;;;;;5356022;26;20011;-66
2024/04/14 02:17:19;;;;;;;9.82;3.22;;;;;;;;;;5374968;26;20564;-65
2024/04/14 02:19:48;;;;;;;11.52;3.30;;;;;;;;;;5369073;26;20010;-65
2024/04/14 02:22:15;;;;;;;10.60;3.58;;;;;;;;;;5361261;26;20018;-65
2024/04/14 02:24:45;;;;;;;9.77;3.05;;;;;;;;;;5375883;26;20010;-65
2024/04/14 02:27:15;;;;;;;11.60;3.40;;;;;;;;;;5368279;26;20080;-65
2024/04/14 02:29:44;;;;;;;9.52;3.08;;;;;;;;;;5373972;26;20014;-65
2024/04/14 02:32:12;;;;;;;9.15;2.90;;;;;;;;;;5374345;26;20404;-65
2024/04/14 02:34:40;;;;;;;9.13;3.03;;;;;;;;;;5371528;26;20015;-65
2024/04/14 02:37:08;;;;;;;7.80;2.65;;;;;;;;;;5369966;26;20003;-65
2024/04/14 02:39:37;;;;;;;9.85;2.45;;;;;;;;;;5378464;26;20007;-65
2024/04/14 02:42:06;;;;;;;8.25;2.55;;;;;;;;;;5369490;26;20068;-65
2024/04/14 02:44:33;;;;;;;7.00;2.42;;;;;;;;;;5371976;26;20072;-65
2024/04/14 02:47:02;;;;;;;8.80;2.75;;;;;;;;;;5353855;26;21168;-65
2024/04/14 02:49:29;;;;;;;7.75;2.20;;;;;;;;;;5370488;26;20781;-65
2024/04/14 02:51:56;;;;;;;7.22;2.08;;;;;;;;;;5368245;26;20101;-65
2024/04/14 02:54:24;;;;;;;10.82;2.50;;;;;;;;;;5372041;26;20091;-65
2024/04/14 02:56:51;;;;;;;7.38;2.40;;;;;;;;;;5353907;26;20003;-65
2024/04/14 02:59:18;;;;;;;8.63;3.20;;;;;;;;;;5366717;26;20011;-65
2024/04/14 03:01:49;;;;;;;14.82;6.38;;;;;;;;;;5354548;26;20007;-65
2024/04/14 03:04:17;;;;;;;10.80;3.85;;;;;;;;;;5372191;26;20148;-65
2024/04/14 03:06:44;;;;;;;10.18;3.50;;;;;;;;;;5370698;26;20518;-66
2024/04/14 03:09:12;;;;;;;10.30;4.53;;;;;;;;;;5375254;26;20009;-66
2024/04/14 03:11:39;;;;;;;8.73;3.78;;;;;;;;;;5373173;26;21584;-66
2024/04/14 03:14:05;;;;;;;17.13;8.13;;;;;;;;;;5368434;26;20494;-65
2024/04/14 03:16:33;;;;;;;;;;;;;;;;;;5376235;26;20026;-65
2024/04/14 03:19:00;;;;;;;;;;;;;;;;;;5368977;26;19940;-65
2024/04/14 03:21:27;;;;;;;23.73;14.30;;;;;;;;;;5372994;26;19929;-65
2024/04/14 03:23:55;;;;;;;20.80;11.98;;;;;;;;;;5364261;26;20004;-65
2024/04/14 03:26:22;;;;;;;19.15;10.77;;;;;;;;;;5371308;26;20007;-65
2024/04/14 03:28:49;;;;;;;18.08;10.30;;;;;;;;;;5386625;26;20066;-65
2024/04/14 03:31:19;;;;;;;13.70;7.30;;;;;;;;;;5374093;26;20845;-65
2024/04/14 03:33:47;;;;;;;16.35;7.47;;;;;;;;;;5369049;26;20076;-65
2024/04/14 03:36:14;;;;;;;12.13;4.90;;;;;;;;;;5374466;26;20003;-65
2024/04/14 03:38:42;;;;;;;11.73;4.00;;;;;;;;;;5371057;26;20008;-65
2024/04/14 03:41:09;;;;;;;10.13;4.07;;;;;;;;;;5369647;26;20008;-66
2024/04/14 03:43:36;;;;;;;9.45;3.70;;;;;;;;;;5369776;26;20023;-65
2024/04/14 03:46:04;;;;;;;14.32;6.75;;;;;;;;;;5356161;26;20595;-65
2024/04/14 03:48:30;;;;;;;12.43;4.65;;;;;;;;;;5363926;26;20050;-65
2024/04/14 03:50:57;;;;;;;;;;;;;;;;;;5370635;26;20468;-65
2024/04/14 03:53:25;;;;;;;9.27;3.85;;;;;;;;;;5370816;26;20105;-65
2024/04/14 03:55:53;;;;;;;9.13;3.47;;;;;;;;;;5354139;26;19995;-65
2024/04/14 03:58:20;;;;;;;10.48;4.40;;;;;;;;;;5365976;26;20014;-64
2024/04/14 04:00:47;;;;;;;10.65;3.97;;;;;;;;;;5356823;26;20011;-64
2024/04/14 04:03:15;;;;;;;10.30;2.70;;;;;;;;;;5359496;26;20014;-64
2024/04/14 04:05:54;;;;;;;8.95;3.10;;;;;;;;;;5373490;26;19997;-64
2024/04/14 04:08:24;;;;;;;10.65;4.10;;;;;;;;;;5367163;26;20054;-65
2024/04/14 04:11:03;;;;;;;11.95;4.97;;;;;;;;;;5366920;26;20007;-64
2024/04/14 04:13:33;;;;;;;11.45;4.40;;;;;;;;;;5365085;26;20089;-64
2024/04/14 04:16:04;;;;;;;9.80;4.57;;;;;;;;;;5369670;26;20004;-64
2024/04/14 04:18:31;;;;;;;14.70;5.82;;;;;;;;;;5372297;26;20037;-64
2024/04/14 04:21:02;;;;;;;13.35;5.28;;;;;;;;;;5371076;26;20000;-64
2024/04/14 04:23:29;;;;;;;13.90;5.97;;;;;;;;;;5367357;26;20503;-65
2024/04/14 04:25:59;;;;;;;13.95;5.00;;;;;;;;;;5368167;26;20111;-65
2024/04/14 04:28:27;;;;;;;11.80;4.25;;;;;;;;;;5376701;26;20478;-65
2024/04/14 04:30:54;;;;;;;12.35;4.45;;;;;;;;;;5368468;26;20081;-65
2024/04/14 04:33:23;;;;;;;9.52;3.90;;;;;;;;;;5385239;26;20018;-65
2024/04/14 04:35:59;;;;;;;14.55;4.30;;;;;;;;;;5367639;26;20004;-65
2024/04/14 04:38:27;;;;;;;16.02;4.20;;;;;;;;;;5377639;26;20014;-65
2024/04/14 04:40:54;;;;;;;10.65;3.90;;;;;;;;;;5370739;26;20072;-64
2024/04/14 04:43:22;;;;;;;12.35;3.63;;;;;;;;;;5373002;26;20700;-65
2024/04/14 04:45:49;;;;;;;9.35;3.20;;;;;;;;;;5378219;26;21298;-65
2024/04/14 04:48:17;;;;;;;9.05;3.05;;;;;;;;;;5359981;26;19999;-64
2024/04/14 04:50:47;;;;;;;11.20;3.10;;;;;;;;;;5369415;26;20003;-64
2024/04/14 04:53:17;;;;;;;11.23;3.15;;;;;;;;;;5365873;26;20050;-64
2024/04/14 04:55:45;;;;;;;8.18;2.97;;;;;;;;;;5370369;26;20016;-64
2024/04/14 04:58:12;;;;;;;11.27;3.00;;;;;;;;;;5359899;26;20011;-64
2024/04/14 05:00:40;;;;;;;11.27;2.75;;;;;;;;;;5371661;26;20003;-64
2024/04/14 05:03:07;;;;;;;8.38;2.63;;;;;;;;;;5362725;26;20011;-64
2024/04/14 05:05:35;;;;;;;9.80;2.75;;;;;;;;;;5364759;26;20587;-63
2024/04/14 05:08:03;;;;;;;9.25;2.50;;;;;;;;;;5369183;26;20014;-64
2024/04/14 05:10:31;;;;;;;10.88;3.13;;;;;;;;;;5375036;26;20600;-64
2024/04/14 05:13:00;;;;;;;9.70;3.15;;;;;;;;;;5363098;26;20003;-64
2024/04/14 05:15:29;;;;;;;9.57;3.05;;;;;;;;;;5374849;26;20015;-64
2024/04/14 05:17:57;;;;;;;10.18;2.95;;;;;;;;;;5362191;26;20008;-65
2024/04/14 05:20:26;;;;;;;9.13;2.90;;;;;;;;;;5370449;26;20023;-64
2024/04/14 05:22:53;;;;;;;8.30;2.88;;;;;;;;;;5363408;26;20049;-64
2024/04/14 05:25:22;;;;;;;13.43;3.20;;;;;;;;;;5370296;26;20042;-65
2024/04/14 05:27:49;;;;;;;12.55;4.05;;;;;;;;;;5361214;26;19999;-65
2024/04/14 05:30:17;;;;;;;13.38;4.20;;;;;;;;;;5368989;26;20012;-65
2024/04/14 05:32:45;;;;;;;10.05;3.80;;;;;;;;;;5374347;26;20190;-65
2024/04/14 05:35:13;;;;;;;11.88;4.03;;;;;;;;;;5371063;26;20000;-65
2024/04/14 05:37:41;;;;;;;13.00;4.03;;;;;;;;;;5372857;26;20025;-65
2024/04/14 05:40:10;;;;;;;11.20;3.67;;;;;;;;;;5358479;26;21283;-65
2024/04/14 05:42:38;;;;;;;10.07;3.20;;;;;;;;;;5361395;26;20004;-65
2024/04/14 05:45:11;;;;;;;9.73;3.70;;;;;;;;;;5369722;26;20011;-65
2024/04/14 05:47:39;;;;;;;15.23;4.20;;;;;;;;;;5364683;26;20022;-65
2024/04/14 05:50:06;;;;;;;11.25;3.72;;;;;;;;;;5375132;26;21135;-65
2024/04/14 05:52:34;;;;;;;11.45;3.75;;;;;;;;;;5365181;26;20026;-65
2024/04/14 05:55:01;;;;;;;13.40;4.03;;;;;;;;;;5356200;26;20010;-65
2024/04/14 05:57:28;;;;;;;15.55;4.10;;;;;;;;;;5374456;26;20686;-65
2024/04/14 05:59:55;;;;;;;16.85;4.50;;;;;;;;;;5371175;26;20755;-66
2024/04/14 06:02:24;;;;;;;11.45;3.58;;;;;;;;;;5374848;26;20007;-65
2024/04/14 06:04:51;;;;;;;13.60;3.60;;;;;;;;;;5372264;26;20064;-65
2024/04/14 06:07:19;;;;;;;14.23;4.00;;;;;;;;;;5369543;26;20561;-65
2024/04/14 06:09:46;;;;;;;11.65;3.40;;;;;;;;;;5357973;26;20019;-64
2024/04/14 06:12:14;;;;;;;12.18;3.90;;;;;;;;;;5375783;26;20015;-65
2024/04/14 06:14:41;;;;;;;11.52;3.85;;;;;;;;;;5371815;26;20023;-65
2024/04/14 06:17:09;;;;;;;12.07;3.80;;;;;;;;;;5368399;26;20127;-65
2024/04/14 06:19:38;;;;;;;12.30;3.83;;;;;;;;;;5374535;26;20007;-66
2024/04/14 06:22:06;;;;;;;14.57;5.03;;;;;;;;;;5353711;26;20737;-65
2024/04/14 06:24:34;;;;;;;11.82;3.90;;;;;;;;;;5364176;26;20007;-65
2024/04/14 06:27:01;;;;;;;13.80;5.43;;;;;;;;;;5365873;26;20079;-65
2024/04/14 06:29:29;;;;;;;14.55;6.47;;;;;;;;;;5366054;26;20168;-65
2024/04/14 06:31:57;;;;;;;12.73;6.50;;;;;;;;;;5369374;26;20033;-65
2024/04/14 06:34:23;;;;;;;14.45;6.50;;;;;;;;;;5376173;26;20011;-66
2024/04/14 06:36:52;;;;;;;12.98;7.10;;;;;;;;;;5373949;26;20007;-66
2024/04/14 06:39:20;;;;;;;11.70;6.35;;;;;;;;;;5378336;26;20008;-66
2024/04/14 06:41:47;;;;;;;11.73;5.68;;;;;;;;;;5371794;26;19999;-66
2024/04/14 06:44:14;;;;;;;11.20;5.60;;;;;;;;;;5373599;26;20006;-67
2024/04/14 06:46:43;;;;;;;11.18;5.40;;;;;;;;;;5371600;26;20061;-65
2024/04/14 06:49:13;;;;;;;13.25;6.03;;;;;;;;;;5370374;26;20015;-65
2024/04/14 06:51:40;;;;;;;12.30;5.85;;;;;;;;;;5369577;26;20060;-65
2024/04/14 06:54:07;;;;;;;13.68;5.20;;;;;;;;;;5354951;26;20003;-65
2024/04/14 06:56:35;;;;;;;13.65;5.00;;;;;;;;;;5373216;26;20003;-65
2024/04/14 06:59:02;;;;;;;10.00;5.18;;;;;;;;;;5368607;26;20010;-64
2024/04/14 07:01:31;;;;;;;16.35;6.30;;;;;;;;;;5373278;26;20039;-65
2024/04/14 07:03:58;;;;;;;16.50;6.30;;;;;;;;;;5367843;26;20975;-66
2024/04/14 07:06:26;;;;;;;15.65;5.63;;;;;;;;;;5374228;26;20008;-72
2024/04/14 07:08:53;;;;;;;14.07;6.38;;;;;;;;;;5369553;26;20026;-65
2024/04/14 07:11:20;;;;;;;19.13;7.28;;;;;;;;;;5382454;26;20457;-65
2024/04/14 07:13:48;;;;;;;18.42;8.50;;;;;;;;;;5371036;26;20053;-64
2024/04/14 07:16:15;;;;;;;17.52;7.93;;;;;;;;;;5376036;26;20036;-65
2024/04/14 07:18:46;;;;;;;14.43;7.80;;;;;;;;;;5378060;26;20022;-65
2024/04/14 07:21:13;;;;;;;14.77;7.60;;;;;;;;;;5369368;26;20009;-66
2024/04/14 07:23:41;;;;;;;12.68;6.82;;;;;;;;;;5377947;26;20015;-64
2024/04/14 07:26:07;;;;;;;12.40;5.68;;;;;;;;;;5354007;26;20007;-67
2024/04/14 07:28:37;;;;;;;14.70;6.40;;;;;;;;;;5369289;26;20119;-67
2024/04/14 07:31:05;;;;;;;14.65;5.93;;;;;;;;;;5364038;26;23339;-66
2024/04/14 07:33:33;;;;;;;13.07;6.00;;;;;;;;;;5376378;26;20510;-70
2024/04/14 07:36:00;;;;;;;13.52;6.53;;;;;;;;;;5364916;26;20014;-66
2024/04/14 07:38:26;;;;;;;14.23;6.45;;;;;;;;;;5370053;26;20007;-66
2024/04/14 07:40:54;;;;;;;16.20;6.10;;;;;;;;;;5361551;26;20485;-67
2024/04/14 07:43:21;;;;;;;13.10;5.75;;;;;;;;;;5363448;26;20042;-66
2024/04/14 07:45:48;;;;;;;12.25;6.72;;;;;;;;;;5361719;26;20000;-67
2024/04/14 07:48:16;;;;;;;18.90;9.85;;;;;;;;;;5331798;26;20004;-67
2024/04/14 07:50:44;;;;;;;15.90;9.15;;;;;;;;;;5361329;26;20007;-65
2024/04/14 07:53:11;;;;;;;16.88;10.30;;;;;;;;;;5357812;26;20000;-64
2024/04/14 07:55:39;;;;;;;17.70;10.02;;;;;;;;;;5369339;26;20508;-67
2024/04/14 07:58:06;;;;;;;18.35;9.93;;;;;;;;;;5361243;26;20578;-65
2024/04/14 08:00:33;;;;;;;16.25;8.60;;;;;;;;;;5373947;26;20051;-65
2024/04/14 08:03:01;;;;;;;22.73;8.43;;;;;;;;;;5358295;26;19995;-65
2024/04/14 08:05:29;;;;;;;15.50;7.50;;;;;;;;;;5372087;26;20041;-65
2024/04/14 08:07:57;;;;;;;15.73;7.53;;;;;;;;;;5352027;26;20776;-65
2024/04/14 08:10:26;;;;;;;15.23;6.38;;;;;;;;;;5365198;26;20118;-66
2024/04/14 08:12:53;;;;;;;13.48;5.82;;;;;;;;;;5359789;26;20003;-65
2024/04/14 08:15:20;;;;;;;13.63;8.05;;;;;;;;;;5372662;26;20018;-65
2024/04/14 08:17:47;;;;;;;16.50;8.30;;;;;;;;;;5360524;26;20034;-65
2024/04/14 08:20:16;;;;;;;14.95;7.90;;;;;;;;;;5364959;26;20018;-65
2024/04/14 08:22:43;;;;;;;16.05;7.38;;;;;;;;;;5372231;26;20105;-65
2024/04/14 08:25:10;;;;;;;11.50;6.30;;;;;;;;;;5364035;26;20356;-66
2024/04/14 08:27:37;;;;;;;16.75;8.23;;;;;;;;;;5372952;26;20069;-65
2024/04/14 08:30:05;;;;;;;14.10;8.52;;;;;;;;;;5348515;26;20114;-65
2024/04/14 08:32:34;;;;;;;15.63;8.77;;;;;;;;;;5355949;26;20007;-65
2024/04/14 08:35:03;;;;;;;15.15;6.97;;;;;;;;;;5343606;26;20000;-65
2024/04/14 08:37:30;;;;;;;11.63;4.80;;;;;;;;;;5358741;26;20099;-65
2024/04/14 08:39:57;;;;;;;9.40;3.45;;;;;;;;;;5339784;26;20007;-64
2024/04/14 08:42:38;;;;;;;10.25;3.40;;;;;;;;;;5356436;26;20114;-65
2024/04/14 08:45:08;;;;;;;11.13;3.30;;;;;;;;;;5349749;26;20024;-65
2024/04/14 08:47:35;;;;;;;9.60;2.78;;;;;;;;;;5389375;26;20733;-65
2024/04/14 08:50:03;;;;;;;10.32;2.97;;;;;;;;;;5366256;26;20082;-65
2024/04/14 08:52:35;;;;;;;9.23;3.20;;;;;;;;;;5375045;26;20011;-65
2024/04/14 08:55:04;;;;;;;10.25;3.45;;;;;;;;;;5345971;26;20011;-66
2024/04/14 08:57:33;;;;;;;8.52;3.00;;;;;;;;;;5372478;26;20010;-66
2024/04/14 09:00:03;;;;;;;9.90;3.60;;;;;;;;;;5365636;26;20004;-66
2024/04/14 09:02:31;;;;;;;10.40;3.35;;;;;;;;;;5370542;26;20060;-66
2024/04/14 09:04:59;;;;;;;9.93;2.65;;;;;;;;;;5358760;26;20003;-66
2024/04/14 09:07:27;;;;;;;7.70;2.40;;;;;;;;;;5365505;26;20022;-66
2024/04/14 09:09:55;;;;;;;12.40;2.83;;;;;;;;;;5350328;26;20091;-67
2024/04/14 09:12:23;;;;;;;9.02;2.80;;;;;;;;;;5366420;26;20015;-66
2024/04/14 09:14:51;;;;;;;7.72;2.92;;;;;;;;;;5370542;26;20010;-65
2024/04/14 09:17:19;;;;;;;9.38;2.92;;;;;;;;;;5373154;26;20007;-66
2024/04/14 09:19:46;;;;;;;8.20;3.10;;;;;;;;;;5365316;26;20007;-66
2024/04/14 09:22:21;;;;;;;9.48;3.30;;;;;;;;;;5362832;26;20019;-66
2024/04/14 09:24:49;;;;;;;11.27;3.40;;;;;;;;;;5362953;26;20049;-65
2024/04/14 09:27:16;;;;;;;13.75;4.57;;;;;;;;;;5367262;26;20015;-66
2024/04/14 09:29:44;;;;;;;11.23;3.92;;;;;;;;;;5358108;26;20012;-66
2024/04/14 09:32:11;;;;;;;9.70;3.50;;;;;;;;;;5368596;26;20014;-65
2024/04/14 09:34:39;;;;;;;11.27;3.75;;;;;;;;;;5367676;26;20060;-65
2024/04/14 09:37:12;;;;;;;13.02;3.78;;;;;;;;;;5362177;26;20085;-65
2024/04/14 09:39:40;;;;;;;10.00;3.40;;;;;;;;;;5369638;26;19999;-65
2024/04/14 09:42:09;;;;;;;11.35;3.40;;;;;;;;;;5353502;26;20022;-65
2024/04/14 09:44:37;;;;;;;10.32;3.50;;;;;;;;;;5364579;26;20854;-65
2024/04/14 09:47:05;;;;;;;11.45;4.30;;;;;;;;;;5366853;26;20022;-65
2024/04/14 09:49:33;;;;;;;10.70;3.72;;;;;;;;;;5371659;26;20003;-65
2024/04/14 09:52:04;;;;;;;12.80;3.60;;;;;;;;;;5361696;26;20024;-66
2024/04/14 09:54:32;;;;;;;10.63;3.35;;;;;;;;;;5388204;26;20364;-66
2024/04/14 09:56:59;;;;;;;8.45;3.08;;;;;;;;;;5363707;26;20057;-65
2024/04/14 09:59:26;;;;;;;12.85;3.28;;;;;;;;;;5370653;26;20668;-65
2024/04/14 10:01:54;;;;;;;9.82;3.20;;;;;;;;;;5360856;26;20011;-65
2024/04/14 10:04:22;;;;;;;11.73;3.47;;;;;;;;;;5376313;26;20025;-65
2024/04/14 10:06:50;;;;;;;9.80;3.13;;;;;;;;;;5353229;26;20109;-65
2024/04/14 10:09:17;;;;;;;10.23;3.30;;;;;;;;;;5372689;26;20052;-66
2024/04/14 10:11:45;;;;;;;8.82;3.03;;;;;;;;;;5368607;26;20508;-65
2024/04/14 10:14:13;;;;;;;8.27;3.13;;;;;;;;;;5362990;26;20639;-65
2024/04/14 10:16:51;;;;;;;12.18;3.05;;;;;;;;;;5365356;26;20018;-66
2024/04/14 10:19:21;;;;;;;8.73;2.80;;;;;;;;;;5359794;26;20022;-65
2024/04/14 10:22:02;;;;;;;8.63;2.97;;;;;;;;;;5358953;26;20007;-65
2024/04/14 10:24:32;;;;;;;8.90;2.95;;;;;;;;;;5365621;26;20003;-65
2024/04/14 10:27:09;;;;;;;8.52;3.10;;;;;;;;;;5361859;26;20015;-66
2024/04/14 10:29:36;;;;;;;8.85;3.35;;;;;;;;;;5359377;26;20025;-66
2024/04/14 10:32:04;;;;;;;11.98;2.97;;;;;;;;;;5352980;26;20873;-65
2024/04/14 10:34:32;;;;;;;8.23;2.80;;;;;;;;;;5370098;26;20003;-66
2024/04/14 10:37:02;;;;;;;9.88;2.80;;;;;;;;;;5363674;26;20003;-66
2024/04/14 10:39:31;;;;;;;8.77;2.70;;;;;;;;;;5364311;26;20014;-65
2024/04/14 10:41:59;;;;;;;7.05;2.38;;;;;;;;;;5362610;26;20000;-66
2024/04/14 10:44:26;;;;;;;8.15;2.42;;;;;;;;;;5366037;26;20100;-65
2024/04/14 10:46:55;;;;;;;9.30;2.75;;;;;;;;;;5366685;26;20021;-65
2024/04/14 10:49:21;;;;;;;8.07;2.75;;;;;;;;;;5372236;26;20008;-66
2024/04/14 10:51:48;;;;;;;9.23;3.03;;;;;;;;;;5367526;26;20019;-67
2024/04/14 10:54:17;;;;;;;9.20;2.65;;;;;;;;;;5362794;26;20803;-66
2024/04/14 10:56:44;;;;;;;8.13;2.50;;;;;;;;;;5366865;26;20015;-66
2024/04/14 10:59:14;;;;;;;7.95;2.80;;;;;;;;;;5372171;26;20018;-65
2024/04/14 11:01:41;;;;;;;8.48;2.55;;;;;;;;;;5374814;26;20010;-66
2024/04/14 11:04:14;;;;;;;7.95;2.75;;;;;;;;;;5359023;26;20003;-66
2024/04/14 11:06:41;;;;;;;7.60;2.50;;;;;;;;;;5374697;26;20544;-66
2024/04/14 11:09:12;;;;;;;6.25;2.10;;;;;;;;;;5366732;26;20003;-66
2024/04/14 11:11:38;;;;;;;6.60;2.13;;;;;;;;;;5372343;26;20569;-65
2024/04/14 11:14:07;;;;;;;7.88;2.17;;;;;;;;;;5334786;26;20011;-66
2024/04/14 11:16:35;;;;;;;7.30;2.10;;;;;;;;;;5378117;26;20021;-66
2024/04/14 11:19:05;;;;;;;9.40;2.30;;;;;;;;;;5365813;26;19996;-65
2024/04/14 11:21:32;;;;;;;8.10;2.45;;;;;;;;;;5370468;26;20043;-66
2024/04/14 11:23:59;;;;;;;11.65;5.60;;;;;;;;;;5357055;26;20015;-67
2024/04/14 11:26:27;;;;;;;10.90;4.05;;;;;;;;;;5377097;26;20014;-66
2024/04/14 11:28:55;;;;;;;8.15;2.47;;;;;;;;;;5356939;26;20092;-66
2024/04/14 11:31:23;;;;;;;7.85;2.40;;;;;;;;;;5382774;26;20017;-66
2024/04/14 11:33:56;;;;;;;8.00;2.20;;;;;;;;;;5359650;26;20088;-66
2024/04/14 11:36:25;;;;;;;7.22;2.35;;;;;;;;;;5367834;26;20030;-66
2024/04/14 11:38:52;;;;;;;9.85;2.30;;;;;;;;;;5361361;26;20000;-66
2024/04/14 11:41:21;;;;;;;8.98;2.15;;;;;;;;;;5370872;26;21823;-66
2024/04/14 11:43:50;;;;;;;6.70;2.03;;;;;;;;;;5364090;26;20059;-66
2024/04/14 11:46:18;;;;;;;8.05;2.03;;;;;;;;;;5370505;26;20023;-66
2024/04/14 11:48:46;;;;;;;7.22;1.80;;;;;;;;;;5366378;26;20011;-66
2024/04/14 11:51:14;;;;;;;8.50;2.10;;;;;;;;;;5370237;26;21152;-66
2024/04/14 11:53:42;;;;;;;26.65;5.63;;;;;;;;;;5375371;26;20011;-67
2024/04/14 11:56:09;;;;;;;13.25;4.72;;;;;;;;;;5360821;26;20029;-66
2024/04/14 11:58:38;;;;;;;15.45;8.38;;;;;;;;;;5368490;26;20015;-66
2024/04/14 12:01:04;;;;;;;13.68;7.30;;;;;;;;;;5368336;26;21574;-65
2024/04/14 12:03:32;;;;;;;13.77;7.75;;;;;;;;;;5372395;26;20088;-67
2024/04/14 12:06:01;;;;;;;12.65;7.25;;;;;;;;;;5364836;26;19999;-67
2024/04/14 12:08:28;;;;;;;16.23;8.80;;;;;;;;;;5372425;26;20019;-66
2024/04/14 12:10:57;;;;;;;16.15;9.48;;;;;;;;;;5369064;26;20028;-65
2024/04/14 12:13:26;;;;;;;15.77;7.97;;;;;;;;;;5371895;26;19999;-66
2024/04/14 12:15:53;;;;;;;18.80;9.65;;;;;;;;;;5371499;26;19999;-67
2024/04/14 12:18:21;;;;;;;17.05;11.77;;;;;;;;;;5370090;26;20347;-66
2024/04/14 12:20:48;;;;;;;21.08;13.90;;;;;;;;;;5369650;26;20057;-66
2024/04/14 12:23:16;;;;;;;15.88;8.65;;;;;;;;;;5363612;26;20016;-67
2024/04/14 12:25:43;;;;;;;13.95;9.18;;;;;;;;;;5374171;26;20000;-65
2024/04/14 12:28:11;;;;;;;11.25;5.80;;;;;;;;;;5369231;26;20022;-67
2024/04/14 12:30:39;;;;;;;13.43;7.40;;;;;;;;;;5379365;26;20022;-64
2024/04/14 12:33:06;;;;;;;11.73;4.38;;;;;;;;;;5364725;26;20007;-65
2024/04/14 12:35:34;;;;;;;11.10;4.63;;;;;;;;;;5373052;26;20751;-64
2024/04/14 12:38:01;;;;;;;10.95;3.30;;;;;;;;;;5367888;26;20218;-65
2024/04/14 12:40:28;;;;;;;8.95;2.83;;;;;;;;;;5375138;26;20042;-65
2024/04/14 12:42:57;;;;;;;10.52;2.50;;;;;;;;;;5371857;26;20010;-64
2024/04/14 12:45:28;;;;;;;9.05;3.28;;;;;;;;;;5374021;26;20011;-67
2024/04/14 12:47:56;;;;;;;9.63;2.78;;;;;;;;;;5372171;26;20008;-66
2024/04/14 12:50:23;;;;;;;7.32;2.65;;;;;;;;;;5370284;26;20577;-65
2024/04/14 12:52:52;;;;;;;8.30;2.47;;;;;;;;;;5368480;26;20550;-65
2024/04/14 12:55:19;;;;;;;8.18;2.20;;;;;;;;;;5373569;26;20016;-67
2024/04/14 12:57:46;;;;;;;7.13;2.50;;;;;;;;;;5367953;26;20076;-66
2024/04/14 13:00:14;;;;;;;6.55;2.40;;;;;;;;;;5378942;26;20019;-66
2024/04/14 13:02:42;;;;;;;8.57;2.20;;;;;;;;;;5375368;26;20016;-67
2024/04/14 13:05:10;;;;;;;7.20;2.05;;;;;;;;;;5359827;26;20049;-66
2024/04/14 13:07:39;;;;;;;7.22;2.17;;;;;;;;;;5371112;26;19995;-67
2024/04/14 13:10:09;;;;;;;7.20;2.38;;;;;;;;;;5365755;26;20011;-66
2024/04/14 13:12:37;;;;;;;8.57;1.95;;;;;;;;;;5372370;26;20045;-66
2024/04/14 13:15:05;;;;;;;8.02;2.22;;;;;;;;;;5369712;26;20011;-66
2024/04/14 13:17:33;;;;;;;7.63;2.20;;;;;;;;;;5372194;26;20020;-66
2024/04/14 13:20:03;;;;;;;8.48;2.13;;;;;;;;;;5371902;26;19999;-67
2024/04/14 13:22:31;;;;;;;6.50;1.88;;;;;;;;;;5375847;26;20019;-67
2024/04/14 13:25:00;;;;;;;6.95;2.03;;;;;;;;;;5344716;26;20016;-67
2024/04/14 13:27:26;;;;;;;7.35;2.90;;;;;;;;;;5372576;26;20014;-66
2024/04/14 13:29:53;;;;;;;8.63;2.30;;;;;;;;;;5365984;26;20015;-67
2024/04/14 13:32:19;;;;;;;7.32;2.03;;;;;;;;;;5373103;26;20003;-66
2024/04/14 13:34:53;;;;;;;13.18;8.05;;;;;;;;;;5365402;26;20022;-66
2024/04/14 13:37:20;;;;;;;8.13;3.50;;;;;;;;;;5373939;26;20518;-66
2024/04/14 13:39:48;;;;;;;12.60;5.88;;;;;;;;;;5360047;26;20072;-66
2024/04/14 13:42:16;;;;;;;10.00;3.60;;;;;;;;;;5372346;26;20012;-66
2024/04/14 13:44:43;;;;;;;11.05;5.45;;;;;;;;;;5371434;26;19999;-65
2024/04/14 13:47:12;;;;;;;8.48;4.13;;;;;;;;;;5379974;26;19999;-65
2024/04/14 13:49:42;;;;;;;9.35;4.43;;;;;;;;;;5370444;26;20007;-65
2024/04/14 13:52:13;;;;;;;10.82;5.18;;;;;;;;;;5364867;26;20017;-65
2024/04/14 13:54:40;;;;;;;9.40;4.45;;;;;;;;;;5366523;26;20091;-65
2024/04/14 13:57:08;;;;;;;7.95;3.00;;;;;;;;;;5371540;26;20010;-65
2024/04/14 13:59:35;;;;;;;9.70;3.75;;;;;;;;;;5366460;26;20460;-65
2024/04/14 14:02:01;;;;;;;8.00;2.55;;;;;;;;;;5364379;26;20040;-65
2024/04/14 14:04:29;;;;;;;8.55;3.38;;;;;;;;;;5355019;26;20019;-65
2024/04/14 14:06:56;;;;;;;5.85;2.22;;;;;;;;;;5360260;26;20008;-67
2024/04/14 14:09:23;;;;;;;8.20;2.40;;;;;;;;;;5371889;26;20016;-67
2024/04/14 14:11:51;;;;;;;8.63;2.65;;;;;;;;;;5366008;26;20093;-68
2024/04/14 14:14:18;;;;;;;7.65;2.20;;;;;;;;;;5367323;26;20035;-67
2024/04/14 14:16:46;;;;;;;5.78;1.80;;;;;;;;;;5362941;26;20007;-68
2024/04/14 14:19:13;;;;;;;6.07;1.98;;;;;;;;;;5365141;26;20030;-66
2024/04/14 14:21:41;;;;;;;8.90;2.55;;;;;;;;;;5367698;26;19999;-66
2024/04/14 14:24:08;;;;;;;9.20;3.13;;;;;;;;;;5359816;26;20039;-66
2024/04/14 14:26:34;;;;;;;8.98;3.20;;;;;;;;;;5368402;26;20580;-66
2024/04/14 14:29:01;;;;;;;9.27;2.42;;;;;;;;;;5362131;26;20228;-66
2024/04/14 14:31:27;;;;;;;8.57;2.90;;;;;;;;;;5347920;26;20004;-66
2024/04/14 14:36:41;;;;;;;8.25;2.20;;;;;;;;;;5371244;26;20017;-66
2024/04/14 14:39:09;;;;;;;11.20;2.35;;;;;;;;;;5348900;26;20067;-66
2024/04/14 14:41:37;;;;;;;8.50;2.15;;;;;;;;;;5366782;26;20026;-66
2024/04/14 14:44:07;;;;;;;8.43;1.60;;;;;;;;;;5354923;26;24526;-67